createdAt,value
2022-09-23T00:01:15.640Z,8.30
2022-09-23T00:03:45.372Z,8.29
2022-09-23T00:06:15.837Z,8.28
2022-09-23T00:08:44.058Z,8.26
2022-09-23T00:11:15.321Z,8.25
2022-09-23T00:13:45.168Z,8.24
2022-09-23T00:16:15.151Z,8.21
2022-09-23T00:18:43.233Z,8.21
2022-09-23T00:21:12.911Z,8.17
2022-09-23T00:23:41.683Z,8.16
2022-09-23T00:26:11.312Z,8.15
2022-09-23T00:28:40.579Z,8.13
2022-09-23T00:31:10.190Z,8.09
2022-09-23T00:33:37.828Z,8.08
2022-09-23T00:36:07.541Z,8.08
2022-09-23T00:38:35.320Z,8.07
2022-09-23T00:41:04.099Z,8.03
2022-09-23T00:43:41.322Z,8.00
2022-09-23T00:46:10.932Z,7.98
2022-09-23T00:48:42.187Z,7.94
2022-09-23T00:51:12.822Z,7.96
2022-09-23T00:53:41.624Z,7.93
2022-09-23T00:56:10.666Z,7.92
2022-09-23T00:58:43.683Z,7.91
2022-09-23T01:01:13.811Z,7.87
2022-09-23T01:03:43.905Z,7.87
2022-09-23T01:06:12.075Z,7.87
2022-09-23T01:08:40.172Z,7.84
2022-09-23T01:11:16.910Z,7.85
2022-09-23T01:13:57.268Z,7.82
2022-09-23T01:16:34.567Z,7.78
2022-09-23T01:19:14.382Z,7.75
2022-09-23T01:21:50.645Z,7.78
2022-09-23T01:24:54.598Z,7.75
2022-09-23T01:27:41.417Z,7.71
2022-09-23T01:30:20.883Z,7.72
2022-09-23T01:33:05.545Z,7.69
2022-09-23T01:35:44.235Z,7.66
2022-09-23T01:38:21.033Z,7.66
2022-09-23T01:40:56.117Z,7.66
2022-09-23T01:43:28.951Z,7.66
2022-09-23T01:46:00.334Z,7.63
2022-09-23T01:48:35.031Z,7.59
2022-09-23T01:51:07.931Z,7.60
2022-09-23T01:53:41.985Z,7.58
2022-09-23T01:56:14.155Z,7.55
2022-09-23T01:58:46.451Z,7.51
2022-09-23T02:01:19.736Z,7.52
2022-09-23T02:03:55.371Z,7.50
2022-09-23T02:06:27.982Z,7.49
2022-09-23T02:09:00.306Z,7.49
2022-09-23T02:11:29.062Z,7.51
2022-09-23T02:14:01.010Z,7.46
2022-09-23T02:16:32.945Z,7.46
2022-09-23T02:19:07.270Z,7.41
2022-09-23T02:21:39.264Z,7.41
2022-09-23T02:24:12.368Z,7.38
2022-09-23T02:26:47.925Z,7.38
2022-09-23T02:29:21.392Z,7.35
2022-09-23T02:31:58.197Z,7.35
2022-09-23T02:34:36.987Z,7.35
2022-09-23T02:37:17.005Z,7.34
2022-09-23T02:39:56.111Z,7.31
2022-09-23T02:42:31.205Z,7.27
2022-09-23T02:44:58.940Z,7.26
2022-09-23T02:47:31.950Z,7.28
2022-09-23T02:50:00.954Z,7.26
2022-09-23T02:52:28.649Z,7.26
2022-09-23T02:54:57.059Z,7.22
2022-09-23T02:57:24.671Z,7.23
2022-09-23T02:59:52.535Z,7.21
2022-09-23T03:02:44.071Z,7.19
2022-09-23T03:05:23.853Z,7.17
2022-09-23T03:08:04.997Z,7.17
2022-09-23T03:10:43.006Z,7.13
2022-09-23T03:13:18.549Z,7.16
2022-09-23T03:15:52.402Z,7.13
2022-09-23T03:18:31.252Z,7.11
2022-09-23T03:21:06.158Z,7.07
2022-09-23T03:23:36.680Z,7.08
2022-09-23T03:26:10.388Z,7.04
2022-09-23T03:28:39.609Z,7.03
2022-09-23T03:31:07.412Z,7.02
2022-09-23T03:33:37.736Z,6.99
2022-09-23T03:36:27.954Z,7.00
2022-09-23T03:39:02.336Z,6.99
2022-09-23T03:41:34.659Z,6.97
2022-09-23T03:44:03.328Z,6.92
2022-09-23T03:46:34.030Z,6.93
2022-09-23T03:49:11.653Z,6.94
2022-09-23T03:51:44.481Z,6.91
2022-09-23T03:54:12.323Z,6.89
2022-09-23T03:56:39.873Z,6.87
2022-09-23T03:59:07.405Z,6.86
2022-09-23T04:01:34.904Z,6.88
2022-09-23T04:04:02.759Z,6.82
2022-09-23T04:06:30.273Z,6.82
2022-09-23T04:08:59.834Z,6.82
2022-09-23T04:11:27.325Z,6.82
2022-09-23T04:13:56.257Z,6.79
2022-09-23T04:16:24.022Z,6.77
2022-09-23T04:18:52.236Z,6.76
2022-09-23T04:21:19.817Z,6.72
2022-09-23T04:23:47.465Z,6.74
2022-09-23T04:26:16.669Z,6.72
2022-09-23T04:28:44.231Z,6.69
2022-09-23T04:31:11.790Z,6.70
2022-09-23T04:33:39.571Z,6.68
2022-09-23T04:36:07.652Z,6.65
2022-09-23T04:38:35.728Z,6.64
2022-09-23T04:41:03.232Z,6.64
2022-09-23T04:43:32.186Z,6.61
2022-09-23T04:46:00.830Z,6.58
2022-09-23T04:48:28.509Z,6.54
2022-09-23T04:50:56.167Z,6.56
2022-09-23T04:53:23.702Z,6.53
2022-09-23T04:55:52.229Z,6.54
2022-09-23T04:58:22.983Z,6.53
2022-09-23T05:00:52.210Z,6.53
2022-09-23T05:03:19.729Z,6.49
2022-09-23T05:05:47.427Z,6.50
2022-09-23T05:08:15.267Z,6.49
2022-09-23T05:10:43.201Z,6.48
2022-09-23T05:13:10.738Z,6.49
2022-09-23T05:15:38.238Z,6.50
2022-09-23T05:18:07.148Z,6.51
2022-09-23T05:20:34.643Z,6.44
2022-09-23T05:23:02.171Z,6.45
2022-09-23T05:25:29.660Z,6.43
2022-09-23T05:27:57.192Z,6.48
2022-09-23T05:32:52.455Z,6.41
2022-09-23T05:35:21.282Z,6.44
2022-09-23T05:37:48.815Z,6.43
2022-09-23T05:40:16.335Z,6.40
2022-09-23T05:42:43.901Z,6.43
2022-09-23T05:45:11.593Z,6.41
2022-09-23T05:47:39.265Z,6.45
2022-09-23T05:50:07.642Z,6.43
2022-09-23T05:52:36.532Z,6.48
2022-09-23T05:55:04.556Z,6.49
2022-09-23T05:57:32.662Z,6.48
2022-09-23T06:00:00.307Z,6.48
2022-09-23T06:02:27.838Z,6.48
2022-09-23T06:04:55.409Z,6.48
2022-09-23T06:07:22.932Z,6.50
2022-09-23T06:09:53.929Z,6.52
2022-09-23T06:12:22.501Z,6.51
2022-09-23T06:14:50.679Z,6.52
2022-09-23T06:17:18.203Z,6.55
2022-09-23T06:19:45.861Z,6.54
2022-09-23T06:22:16.949Z,6.54
2022-09-23T06:24:44.502Z,6.62
2022-09-23T06:27:13.426Z,6.62
2022-09-23T06:29:41.006Z,6.60
2022-09-23T06:32:08.769Z,6.56
2022-09-23T06:34:48.287Z,6.57
2022-09-23T06:37:20.513Z,6.60
2022-09-23T06:39:49.029Z,6.62
2022-09-23T06:42:18.468Z,6.64
2022-09-23T06:44:45.963Z,6.67
2022-09-23T06:47:13.470Z,6.70
2022-09-23T06:49:41.178Z,6.70
2022-09-23T06:52:09.040Z,6.77
2022-09-23T06:54:38.041Z,6.78
2022-09-23T06:57:05.626Z,6.82
2022-09-23T06:59:34.944Z,6.82
2022-09-23T07:02:02.840Z,6.88
2022-09-23T07:04:30.500Z,6.92
2022-09-23T07:06:58.129Z,6.95
2022-09-23T07:09:25.932Z,6.92
2022-09-23T07:11:53.467Z,6.99
2022-09-23T07:14:21.005Z,6.96
2022-09-23T07:16:51.381Z,6.99
2022-09-23T07:19:18.896Z,6.95
2022-09-23T07:21:46.384Z,6.93
2022-09-23T07:24:13.916Z,6.97
2022-09-23T07:26:45.561Z,7.03
2022-09-23T07:29:14.988Z,7.03
2022-09-23T07:31:43.015Z,7.01
2022-09-23T07:34:12.150Z,7.09
2022-09-23T07:36:40.595Z,7.09
2022-09-23T07:39:08.903Z,7.08
2022-09-23T07:41:37.156Z,7.16
2022-09-23T07:44:06.211Z,7.23
2022-09-23T07:46:37.002Z,7.32
2022-09-23T07:49:06.246Z,7.31
2022-09-23T07:51:38.218Z,7.46
2022-09-23T07:54:08.721Z,7.48
2022-09-23T07:56:37.703Z,7.51
2022-09-23T07:59:05.734Z,7.51
2022-09-23T08:01:35.988Z,7.61
2022-09-23T08:04:06.910Z,7.66
2022-09-23T08:06:36.757Z,7.75
2022-09-23T08:09:04.639Z,7.85
2022-09-23T08:11:32.846Z,7.92
2022-09-23T08:14:00.354Z,8.00
2022-09-23T08:16:27.907Z,7.97
2022-09-23T08:18:55.501Z,8.01
2022-09-23T08:21:24.032Z,8.04
2022-09-23T08:23:52.971Z,8.04
2022-09-23T08:26:22.430Z,8.09
2022-09-23T08:28:53.839Z,8.23
2022-09-23T08:31:21.645Z,8.37
2022-09-23T08:33:49.722Z,8.40
2022-09-23T08:36:17.356Z,8.54
2022-09-23T08:38:44.930Z,8.80
2022-09-23T08:41:21.479Z,8.75
2022-09-23T08:43:53.365Z,8.78
2022-09-23T08:46:25.374Z,8.66
2022-09-23T08:48:53.566Z,8.74
2022-09-23T08:51:27.029Z,8.83
2022-09-23T08:53:54.606Z,9.04
2022-09-23T08:56:25.037Z,9.01
2022-09-23T08:59:01.248Z,9.11
2022-09-23T09:01:35.174Z,9.12
2022-09-23T09:04:07.394Z,9.25
2022-09-23T09:06:52.897Z,9.31
2022-09-23T09:09:25.012Z,9.40
2022-09-23T09:12:00.928Z,9.43
2022-09-23T09:14:36.794Z,9.50
2022-09-23T09:17:07.922Z,9.58
2022-09-23T09:19:59.282Z,9.61
2022-09-23T09:22:43.260Z,9.95
2022-09-23T09:25:23.837Z,9.81
2022-09-23T09:27:53.639Z,9.93
2022-09-23T09:30:21.590Z,10.01
2022-09-23T09:32:53.431Z,10.04
2022-09-23T09:35:28.060Z,10.32
2022-09-23T09:37:55.924Z,10.15
2022-09-23T09:40:23.536Z,10.32
2022-09-23T09:42:52.461Z,10.35
2022-09-23T09:45:30.022Z,10.46
2022-09-23T09:48:05.783Z,10.60
2022-09-23T09:50:49.217Z,10.71
2022-09-23T09:53:27.456Z,10.64
2022-09-23T09:56:04.950Z,10.75
2022-09-23T09:58:43.885Z,10.78
2022-09-23T10:01:20.233Z,11.08
2022-09-23T10:03:48.226Z,10.95
2022-09-23T10:06:22.137Z,11.21
2022-09-23T10:09:12.000Z,11.50
2022-09-23T10:11:41.021Z,11.44
2022-09-23T10:14:17.496Z,11.29
2022-09-23T10:16:48.754Z,11.26
2022-09-23T10:19:26.412Z,11.54
2022-09-23T10:21:56.819Z,11.52
2022-09-23T10:24:27.599Z,11.61
2022-09-23T10:27:00.846Z,11.62
2022-09-23T10:29:32.840Z,11.76
2022-09-23T10:32:25.543Z,11.85
2022-09-23T10:34:56.971Z,11.81
2022-09-23T10:37:33.286Z,11.96
2022-09-23T10:40:18.830Z,11.85
2022-09-23T10:43:18.384Z,12.01
2022-09-23T10:46:22.267Z,12.70
2022-09-23T10:49:05.871Z,12.80
2022-09-23T10:51:45.567Z,12.54
2022-09-23T10:54:22.770Z,12.42
2022-09-23T10:57:01.227Z,12.76
2022-09-23T10:59:44.611Z,13.05
2022-09-23T11:02:27.999Z,13.10
2022-09-23T11:05:13.849Z,12.88
2022-09-23T11:07:49.247Z,12.93
2022-09-23T11:10:46.573Z,13.06
2022-09-23T11:13:30.973Z,12.81
2022-09-23T11:16:08.697Z,12.70
2022-09-23T11:18:59.420Z,12.83
2022-09-23T11:21:42.499Z,12.84
2022-09-23T11:24:23.803Z,13.03
2022-09-23T11:27:04.954Z,12.95
2022-09-23T11:29:53.223Z,13.09
2022-09-23T11:32:38.255Z,13.15
2022-09-23T11:35:17.451Z,13.08
2022-09-23T11:37:49.977Z,13.21
2022-09-23T11:40:21.854Z,13.39
2022-09-23T11:42:58.099Z,13.48
2022-09-23T11:45:30.976Z,13.55
2022-09-23T11:48:03.611Z,13.63
2022-09-23T11:50:35.853Z,13.63
2022-09-23T11:53:08.820Z,13.73
2022-09-23T11:55:55.293Z,13.75
2022-09-23T11:58:31.272Z,13.77
2022-09-23T12:01:02.078Z,14.11
2022-09-23T12:03:44.319Z,13.99
2022-09-23T12:06:18.543Z,14.04
2022-09-23T12:08:46.133Z,14.03
2022-09-23T12:11:24.856Z,13.84
2022-09-23T12:14:00.848Z,13.87
2022-09-23T12:16:45.546Z,13.78
2022-09-23T12:19:28.676Z,13.76
2022-09-23T12:22:16.833Z,13.79
2022-09-23T12:24:48.385Z,13.88
2022-09-23T12:27:27.904Z,14.16
2022-09-23T12:29:59.808Z,14.49
2022-09-23T12:32:28.299Z,14.41
2022-09-23T12:34:56.327Z,14.16
2022-09-23T12:37:28.978Z,14.03
2022-09-23T12:40:02.515Z,14.08
2022-09-23T12:42:31.392Z,14.27
2022-09-23T12:45:34.974Z,14.26
2022-09-23T12:48:04.217Z,14.28
2022-09-23T12:50:48.456Z,14.54
2022-09-23T12:53:53.113Z,14.51
2022-09-23T12:56:24.609Z,14.50
2022-09-23T12:59:10.803Z,14.33
2022-09-23T13:01:39.392Z,14.48
2022-09-23T13:04:24.897Z,14.45
2022-09-23T13:06:58.694Z,14.47
2022-09-23T13:09:29.276Z,14.87
2022-09-23T13:12:02.369Z,14.70
2022-09-23T13:14:32.895Z,14.64
2022-09-23T13:17:00.781Z,14.78
2022-09-23T13:19:47.377Z,15.01
2022-09-23T13:22:15.066Z,15.13
2022-09-23T13:24:45.238Z,14.77
2022-09-23T13:27:19.958Z,14.63
2022-09-23T13:29:52.867Z,14.63
2022-09-23T13:32:22.252Z,14.54
2022-09-23T13:34:58.177Z,14.63
2022-09-23T13:37:31.281Z,14.47
2022-09-23T13:40:09.845Z,14.79
2022-09-23T13:42:41.923Z,14.64
2022-09-23T13:45:16.397Z,14.63
2022-09-23T13:47:45.527Z,15.11
2022-09-23T13:50:18.125Z,14.84
2022-09-23T13:52:46.325Z,14.66
2022-09-23T13:55:32.314Z,15.01
2022-09-23T13:58:04.261Z,14.70
2022-09-23T14:00:36.512Z,14.62
2022-09-23T14:03:16.753Z,14.77
2022-09-23T14:05:44.595Z,14.88
2022-09-23T14:08:13.060Z,15.22
2022-09-23T14:10:42.919Z,15.03
2022-09-23T14:13:17.384Z,15.15
2022-09-23T14:15:46.208Z,15.03
2022-09-23T14:18:19.572Z,15.28
2022-09-23T14:20:50.249Z,15.29
2022-09-23T14:23:18.716Z,15.29
2022-09-23T14:25:47.779Z,15.07
2022-09-23T14:28:19.222Z,15.13
2022-09-23T14:30:48.096Z,15.30
2022-09-23T14:33:17.993Z,15.20
2022-09-23T14:35:49.227Z,15.23
2022-09-23T14:38:41.626Z,15.18
2022-09-23T14:41:18.080Z,15.07
2022-09-23T14:43:54.627Z,15.04
2022-09-23T14:46:24.508Z,14.90
2022-09-23T14:48:59.061Z,14.83
2022-09-23T14:51:33.407Z,14.93
2022-09-23T14:54:41.249Z,15.01
2022-09-23T14:57:29.721Z,15.01
2022-09-23T15:00:02.438Z,14.88
2022-09-23T15:02:32.560Z,14.97
2022-09-23T15:05:31.405Z,14.91
2022-09-23T15:08:02.761Z,14.88
2022-09-23T15:10:33.422Z,14.89
2022-09-23T15:13:06.529Z,15.04
2022-09-23T15:15:36.231Z,14.91
2022-09-23T15:18:07.128Z,14.88
2022-09-23T15:20:35.636Z,14.76
2022-09-23T15:23:03.791Z,14.69
2022-09-23T15:25:34.105Z,14.78
2022-09-23T15:28:05.821Z,14.79
2022-09-23T15:30:38.135Z,14.76
2022-09-23T15:33:06.317Z,14.77
2022-09-23T15:35:35.026Z,14.84
2022-09-23T15:38:03.213Z,14.85
2022-09-23T15:40:32.398Z,14.82
2022-09-23T15:43:01.321Z,14.80
2022-09-23T15:45:33.127Z,14.76
2022-09-23T15:48:07.312Z,14.74
2022-09-23T15:50:35.944Z,14.73
2022-09-23T15:53:04.268Z,14.75
2022-09-23T15:55:31.950Z,14.66
2022-09-23T15:57:59.649Z,14.64
2022-09-23T16:00:27.251Z,14.62
2022-09-23T16:02:55.205Z,14.61
2022-09-23T16:05:30.682Z,14.50
2022-09-23T16:07:58.357Z,14.44
2022-09-23T16:10:26.067Z,14.39
2022-09-23T16:12:55.733Z,14.37
2022-09-23T16:15:25.218Z,14.28
2022-09-23T16:17:52.885Z,14.22
2022-09-23T16:20:20.439Z,14.15
2022-09-23T16:22:54.882Z,14.07
2022-09-23T16:25:27.240Z,14.02
2022-09-23T16:27:55.404Z,13.99
2022-09-23T16:30:23.431Z,13.91
2022-09-23T16:32:51.651Z,13.90
2022-09-23T16:35:19.909Z,13.82
2022-09-23T16:37:49.640Z,13.76
2022-09-23T16:40:19.855Z,13.70
2022-09-23T16:42:47.758Z,13.60
2022-09-23T16:45:16.863Z,13.61
2022-09-23T16:47:46.161Z,13.56
2022-09-23T16:50:14.397Z,13.49
2022-09-23T16:52:42.678Z,13.46
2022-09-23T16:55:13.479Z,13.40
2022-09-23T16:57:41.905Z,13.39
2022-09-23T17:00:31.454Z,13.33
2022-09-23T17:03:16.901Z,13.28
2022-09-23T17:05:46.804Z,13.22
2022-09-23T17:08:16.336Z,13.18
2022-09-23T17:10:55.174Z,13.14
2022-09-23T17:13:22.813Z,13.13
2022-09-23T17:15:50.512Z,13.10
2022-09-23T17:18:19.623Z,13.08
2022-09-23T17:20:57.603Z,13.02
2022-09-23T17:23:26.353Z,13.01
2022-09-23T17:25:55.467Z,12.96
2022-09-23T17:28:23.348Z,12.91
2022-09-23T17:33:26.028Z,12.88
2022-09-23T17:35:54.503Z,12.85
2022-09-23T17:38:26.745Z,12.81
2022-09-23T17:41:00.994Z,12.78
2022-09-23T17:43:31.034Z,12.76
2022-09-23T17:46:06.180Z,12.69
2022-09-23T17:48:35.483Z,12.69
2022-09-23T17:51:05.015Z,12.65
2022-09-23T17:53:34.974Z,12.60
2022-09-23T17:56:06.597Z,12.58
2022-09-23T17:58:35.822Z,12.52
2022-09-23T18:01:03.433Z,12.54
2022-09-23T18:03:33.055Z,12.52
2022-09-23T18:06:08.052Z,12.47
2022-09-23T18:08:35.683Z,12.40
2022-09-23T18:11:12.084Z,12.33
2022-09-23T18:13:39.604Z,12.32
2022-09-23T18:16:07.797Z,12.31
2022-09-23T18:18:35.391Z,12.27
2022-09-23T18:21:03.232Z,12.23
2022-09-23T18:23:30.978Z,12.20
2022-09-23T18:25:58.506Z,12.17
2022-09-23T18:28:34.544Z,12.16
2022-09-23T18:31:02.397Z,12.12
2022-09-23T18:33:29.950Z,12.09
2022-09-23T18:36:00.230Z,12.05
2022-09-23T18:38:27.775Z,12.05
2022-09-23T18:40:57.003Z,11.99
2022-09-23T18:43:25.894Z,11.98
2022-09-23T18:45:59.443Z,11.96
2022-09-23T18:48:44.713Z,11.95
2022-09-23T18:51:13.506Z,11.96
2022-09-23T18:53:42.017Z,11.94
2022-09-23T18:56:10.677Z,11.88
2022-09-23T18:58:38.689Z,11.85
2022-09-23T19:01:10.276Z,11.83
2022-09-23T19:03:38.295Z,11.86
2022-09-23T19:06:07.933Z,11.81
2022-09-23T19:08:36.327Z,11.80
2022-09-23T19:11:06.204Z,11.77
2022-09-23T19:13:34.890Z,11.75
2022-09-23T19:16:03.529Z,11.72
2022-09-23T19:18:32.641Z,11.72
2022-09-23T19:21:03.644Z,11.66
2022-09-23T19:23:35.486Z,11.67
2022-09-23T19:26:05.510Z,11.67
2022-09-23T19:28:33.460Z,11.65
2022-09-23T19:31:10.646Z,11.63
2022-09-23T19:33:41.191Z,11.61
2022-09-23T19:36:09.438Z,11.63
2022-09-23T19:38:38.308Z,11.61
2022-09-23T19:41:07.826Z,11.59
2022-09-23T19:43:36.707Z,11.58
2022-09-23T19:46:04.356Z,11.58
2022-09-23T19:48:31.933Z,11.54
2022-09-23T19:51:02.539Z,11.53
2022-09-23T19:53:30.157Z,11.53
2022-09-23T19:55:57.802Z,11.50
2022-09-23T19:58:26.254Z,11.53
2022-09-23T20:00:53.892Z,11.52
2022-09-23T20:03:21.474Z,11.50
2022-09-23T20:05:56.555Z,11.44
2022-09-23T20:08:26.851Z,11.49
2022-09-23T20:10:54.491Z,11.44
2022-09-23T20:13:22.339Z,11.44
2022-09-23T20:15:50.170Z,11.42
2022-09-23T20:18:17.695Z,11.43
2022-09-23T20:20:45.209Z,11.41
2022-09-23T20:23:12.715Z,11.41
2022-09-23T20:25:59.006Z,11.29
2022-09-23T20:28:27.334Z,11.35
2022-09-23T20:30:59.033Z,11.36
2022-09-23T20:33:26.584Z,11.31
2022-09-23T20:35:54.084Z,11.35
2022-09-23T20:38:21.593Z,11.31
2022-09-23T20:40:56.896Z,11.31
2022-09-23T20:43:24.641Z,11.29
2022-09-23T20:45:52.974Z,11.31
2022-09-23T20:48:20.552Z,11.28
2022-09-23T20:50:49.055Z,11.30
2022-09-23T20:53:16.579Z,11.26
2022-09-23T20:55:50.120Z,11.22
2022-09-23T20:58:19.338Z,11.23
2022-09-23T21:00:46.930Z,11.22
2022-09-23T21:03:14.731Z,11.18
2022-09-23T21:05:42.493Z,11.19
2022-09-23T21:08:10.126Z,11.18
2022-09-23T21:10:37.730Z,11.18
2022-09-23T21:13:06.874Z,11.16
2022-09-23T21:15:36.793Z,11.14
2022-09-23T21:18:04.503Z,11.14
2022-09-23T21:20:32.005Z,11.06
2022-09-23T21:22:59.528Z,11.10
2022-09-23T21:25:29.018Z,11.11
2022-09-23T21:27:58.376Z,11.13
2022-09-23T21:30:26.182Z,11.09
2022-09-23T21:32:55.842Z,11.10
2022-09-23T21:35:23.495Z,11.08
2022-09-23T21:37:51.003Z,11.06
2022-09-23T21:40:36.447Z,11.07
2022-09-23T21:43:04.030Z,11.08
2022-09-23T21:45:31.748Z,11.08
2022-09-23T21:48:01.204Z,11.08
2022-09-23T21:50:29.954Z,11.10
2022-09-23T21:52:58.232Z,11.09
2022-09-23T21:55:27.666Z,11.08
2022-09-23T21:57:55.167Z,11.05
2022-09-23T22:00:23.449Z,11.05
2022-09-23T22:02:52.355Z,11.04
2022-09-23T22:05:21.535Z,11.05
2022-09-23T22:07:49.021Z,11.05
2022-09-23T22:10:16.763Z,11.03
2022-09-23T22:12:44.266Z,11.01
2022-09-23T22:15:11.773Z,10.99
2022-09-23T22:17:39.735Z,10.95
2022-09-23T22:20:08.257Z,10.92
2022-09-23T22:22:37.114Z,10.93
2022-09-23T22:25:05.011Z,10.96
2022-09-23T22:27:32.545Z,10.95
2022-09-23T22:30:17.595Z,10.93
2022-09-23T22:32:52.854Z,10.88
2022-09-23T22:35:22.022Z,10.90
2022-09-23T22:37:50.867Z,10.91
2022-09-23T22:40:18.501Z,10.91
2022-09-23T22:42:46.202Z,10.89
2022-09-23T22:45:14.067Z,10.89
2022-09-23T22:47:44.030Z,10.90
2022-09-23T22:50:13.853Z,10.86
2022-09-23T22:52:41.463Z,10.88
2022-09-23T22:55:10.721Z,10.84
2022-09-23T22:57:38.577Z,10.84
2022-09-23T23:00:07.820Z,10.84
2022-09-23T23:02:35.365Z,10.82
2022-09-23T23:05:02.911Z,10.80
2022-09-23T23:07:30.466Z,10.82
2022-09-23T23:09:58.165Z,10.80
2022-09-23T23:12:27.093Z,10.81
2022-09-23T23:14:54.825Z,10.75
2022-09-23T23:17:22.301Z,10.74
2022-09-23T23:19:50.572Z,10.72
2022-09-23T23:22:18.152Z,10.73
2022-09-23T23:24:45.677Z,10.73
2022-09-23T23:27:13.183Z,10.72
2022-09-23T23:29:42.069Z,10.70
2022-09-23T23:32:09.783Z,10.70
2022-09-23T23:34:37.346Z,10.68
2022-09-23T23:37:04.869Z,10.67
2022-09-23T23:39:32.408Z,10.66
2022-09-23T23:42:00.229Z,10.67
2022-09-23T23:44:31.067Z,10.64
2022-09-23T23:47:00.000Z,10.64
2022-09-23T23:49:28.663Z,10.65
2022-09-23T23:51:56.256Z,10.66
2022-09-23T23:54:23.779Z,10.63
2022-09-23T23:56:51.938Z,10.62
2022-09-23T23:59:20.869Z,10.58
